createdAt,value
2023-05-19T00:00:05.084Z,81.87
2023-05-19T00:00:36.022Z,82.18
2023-05-19T00:01:06.966Z,82.39
2023-05-19T00:01:37.905Z,81.98
2023-05-19T00:02:39.966Z,81.57
2023-05-19T00:03:10.604Z,81.77
2023-05-19T00:03:41.174Z,81.98
2023-05-19T00:04:12.112Z,81.67
2023-05-19T00:04:43.039Z,81.57
2023-05-19T00:05:13.970Z,81.87
2023-05-19T00:05:44.974Z,82.28
2023-05-19T00:06:15.553Z,83.20
2023-05-19T00:06:46.000Z,83.00
2023-05-19T00:07:16.901Z,82.69
2023-05-19T00:07:47.848Z,82.28
2023-05-19T00:08:18.796Z,82.69
2023-05-19T00:08:49.724Z,82.39
2023-05-19T00:09:20.649Z,82.39
2023-05-19T00:09:51.577Z,82.49
2023-05-19T00:10:22.509Z,82.69
2023-05-19T00:10:53.429Z,82.28
2023-05-19T00:11:24.369Z,82.18
2023-05-19T00:11:55.302Z,82.28
2023-05-19T00:12:26.219Z,82.18
2023-05-19T00:12:57.132Z,81.98
2023-05-19T00:13:28.086Z,82.08
2023-05-19T00:13:59.029Z,82.79
2023-05-19T00:14:29.937Z,83.72
2023-05-19T00:15:00.841Z,83.41
2023-05-19T00:15:31.833Z,82.39
2023-05-19T00:16:02.771Z,82.39
2023-05-19T00:16:33.748Z,83.41
2023-05-19T00:17:04.182Z,83.00
2023-05-19T00:17:35.185Z,81.98
2023-05-19T00:18:06.091Z,81.98
2023-05-19T00:18:37.059Z,82.59
2023-05-19T00:19:08.063Z,82.69
2023-05-19T00:19:38.956Z,82.90
2023-05-19T00:20:09.884Z,82.49
2023-05-19T00:20:40.833Z,83.10
2023-05-19T00:21:11.754Z,83.10
2023-05-19T00:21:42.650Z,82.59
2023-05-19T00:22:13.578Z,82.08
2023-05-19T00:22:44.501Z,82.08
2023-05-19T00:23:15.429Z,82.18
2023-05-19T00:23:46.379Z,82.49
2023-05-19T00:24:17.292Z,83.51
2023-05-19T00:24:48.229Z,82.90
2023-05-19T00:25:19.165Z,82.69
2023-05-19T00:25:50.105Z,82.49
2023-05-19T00:26:21.039Z,83.10
2023-05-19T00:26:51.960Z,83.00
2023-05-19T00:27:22.898Z,83.20
2023-05-19T00:27:53.827Z,82.39
2023-05-19T00:28:24.755Z,83.10
2023-05-19T00:28:55.672Z,83.92
2023-05-19T00:29:26.606Z,83.61
2023-05-19T00:29:57.538Z,83.61
2023-05-19T00:30:28.466Z,82.90
2023-05-19T00:30:59.398Z,82.79
2023-05-19T00:31:30.402Z,82.79
2023-05-19T00:32:00.882Z,82.79
2023-05-19T00:32:31.885Z,83.20
2023-05-19T00:33:02.854Z,83.20
2023-05-19T00:33:33.799Z,83.25
2023-05-19T00:34:04.703Z,83.20
2023-05-19T00:34:35.620Z,83.41
2023-05-19T00:35:06.536Z,82.69
2023-05-19T00:35:37.472Z,82.69
2023-05-19T00:36:08.434Z,82.59
2023-05-19T00:36:39.372Z,82.39
2023-05-19T00:37:41.229Z,82.49
2023-05-19T00:38:12.216Z,82.90
2023-05-19T00:38:43.145Z,83.10
2023-05-19T00:39:14.077Z,82.79
2023-05-19T00:39:44.973Z,82.39
2023-05-19T00:40:15.920Z,82.39
2023-05-19T00:40:46.836Z,82.32
2023-05-19T00:41:17.772Z,82.42
2023-05-19T00:41:48.690Z,82.90
2023-05-19T00:42:19.599Z,82.39
2023-05-19T00:42:50.500Z,82.59
2023-05-19T00:43:21.445Z,82.63
2023-05-19T00:43:52.365Z,82.22
2023-05-19T00:44:23.278Z,82.73
2023-05-19T00:44:54.194Z,83.14
2023-05-19T00:45:25.111Z,82.93
2023-05-19T00:45:56.037Z,82.63
2023-05-19T00:46:27.015Z,82.73
2023-05-19T00:46:58.042Z,83.14
2023-05-19T00:47:28.547Z,83.04
2023-05-19T00:47:59.511Z,83.86
2023-05-19T00:48:30.467Z,84.37
2023-05-19T00:49:01.366Z,84.27
2023-05-19T00:49:32.258Z,83.34
2023-05-19T00:50:03.188Z,83.34
2023-05-19T00:50:34.470Z,83.45
2023-05-19T00:51:05.051Z,83.25
2023-05-19T00:51:35.972Z,83.04
2023-05-19T00:52:06.894Z,83.65
2023-05-19T00:52:37.840Z,84.17
2023-05-19T00:53:08.768Z,83.96
2023-05-19T00:53:39.694Z,83.45
2023-05-19T00:54:10.599Z,83.04
2023-05-19T00:55:12.465Z,83.55
2023-05-19T00:55:43.394Z,84.06
2023-05-19T00:56:14.300Z,83.25
2023-05-19T00:56:45.219Z,83.14
2023-05-19T00:57:16.132Z,83.45
2023-05-19T00:57:47.059Z,82.93
2023-05-19T00:58:17.965Z,82.93
2023-05-19T00:58:48.919Z,83.45
2023-05-19T00:59:19.834Z,82.93
2023-05-19T00:59:50.792Z,83.14
2023-05-19T01:00:21.719Z,83.14
2023-05-19T01:00:52.707Z,82.73
2023-05-19T01:01:23.675Z,83.04
2023-05-19T01:01:54.610Z,83.04
2023-05-19T01:02:25.618Z,83.04
2023-05-19T01:02:56.222Z,83.04
2023-05-19T01:03:26.802Z,83.55
2023-05-19T01:03:57.496Z,83.96
2023-05-19T01:04:27.948Z,83.96
2023-05-19T01:04:58.880Z,83.45
2023-05-19T01:05:29.797Z,83.14
2023-05-19T01:06:00.734Z,83.14
2023-05-19T01:06:31.684Z,83.25
2023-05-19T01:07:02.618Z,83.45
2023-05-19T01:07:33.525Z,83.34
2023-05-19T01:08:04.438Z,83.25
2023-05-19T01:08:35.361Z,83.14
2023-05-19T01:09:06.290Z,83.55
2023-05-19T01:09:37.232Z,83.34
2023-05-19T01:10:08.122Z,82.83
2023-05-19T01:10:39.023Z,82.83
2023-05-19T01:11:09.976Z,82.93
2023-05-19T01:11:40.889Z,83.25
2023-05-19T01:12:11.791Z,82.93
2023-05-19T01:12:42.718Z,82.93
2023-05-19T01:13:13.652Z,83.04
2023-05-19T01:13:44.563Z,83.04
2023-05-19T01:14:15.480Z,83.25
2023-05-19T01:14:46.377Z,83.45
2023-05-19T01:15:17.276Z,83.55
2023-05-19T01:15:48.179Z,83.65
2023-05-19T01:16:19.148Z,83.86
2023-05-19T01:16:50.281Z,83.45
2023-05-19T01:17:20.824Z,83.65
2023-05-19T01:17:51.783Z,83.76
2023-05-19T01:18:22.702Z,83.34
2023-05-19T01:18:53.621Z,83.45
2023-05-19T01:19:24.711Z,84.47
2023-05-19T01:19:55.205Z,83.76
2023-05-19T01:20:26.137Z,83.45
2023-05-19T01:20:57.030Z,83.14
2023-05-19T01:21:27.928Z,83.55
2023-05-19T01:21:58.866Z,83.34
2023-05-19T01:22:29.796Z,83.34
2023-05-19T01:23:00.734Z,83.49
2023-05-19T01:23:31.668Z,83.59
2023-05-19T01:24:02.623Z,83.59
2023-05-19T01:24:33.517Z,83.45
2023-05-19T01:25:04.434Z,83.45
2023-05-19T01:25:35.395Z,83.86
2023-05-19T01:26:06.317Z,83.69
2023-05-19T01:26:37.253Z,83.69
2023-05-19T01:27:08.177Z,84.10
2023-05-19T01:27:39.083Z,83.59
2023-05-19T01:28:09.997Z,83.28
2023-05-19T01:28:40.904Z,83.59
2023-05-19T01:29:11.813Z,84.17
2023-05-19T01:30:13.696Z,84.31
2023-05-19T01:30:44.648Z,83.59
2023-05-19T01:31:15.552Z,83.39
2023-05-19T01:31:46.512Z,83.90
2023-05-19T01:32:17.472Z,84.41
2023-05-19T01:32:48.514Z,83.90
2023-05-19T01:33:18.945Z,83.49
2023-05-19T01:33:49.884Z,83.80
2023-05-19T01:34:20.803Z,83.49
2023-05-19T01:34:51.764Z,83.80
2023-05-19T01:35:22.660Z,83.90
2023-05-19T01:35:53.607Z,83.49
2023-05-19T01:36:24.522Z,83.59
2023-05-19T01:36:55.419Z,83.59
2023-05-19T01:37:26.352Z,84.72
2023-05-19T01:37:57.275Z,85.23
2023-05-19T01:38:28.205Z,84.41
2023-05-19T01:38:59.121Z,84.41
2023-05-19T01:39:30.039Z,84.55
2023-05-19T01:40:00.995Z,84.45
2023-05-19T01:40:32.155Z,84.55
2023-05-19T01:41:02.911Z,84.76
2023-05-19T01:41:33.322Z,84.45
2023-05-19T01:42:04.244Z,84.86
2023-05-19T01:42:35.171Z,85.17
2023-05-19T01:43:06.099Z,84.76
2023-05-19T01:43:37.057Z,84.45
2023-05-19T01:44:08.013Z,84.76
2023-05-19T01:44:38.911Z,84.86
2023-05-19T01:45:09.852Z,85.17
2023-05-19T01:45:40.803Z,84.96
2023-05-19T01:46:11.783Z,84.86
2023-05-19T01:46:42.239Z,85.58
2023-05-19T01:47:44.118Z,84.96
2023-05-19T01:48:15.174Z,84.96
2023-05-19T01:48:45.718Z,85.06
2023-05-19T01:49:16.618Z,85.27
2023-05-19T01:49:47.507Z,84.86
2023-05-19T01:50:18.518Z,84.86
2023-05-19T01:50:49.405Z,85.27
2023-05-19T01:51:20.320Z,85.78
2023-05-19T01:51:51.243Z,85.99
2023-05-19T01:52:22.157Z,85.78
2023-05-19T01:52:53.068Z,85.38
2023-05-19T01:53:23.960Z,85.38
2023-05-19T01:53:54.895Z,85.38
2023-05-19T01:54:25.819Z,85.47
2023-05-19T01:54:56.756Z,85.68
2023-05-19T01:55:27.704Z,85.47
2023-05-19T01:55:58.654Z,85.31
2023-05-19T01:56:29.568Z,85.52
2023-05-19T01:57:00.507Z,85.72
2023-05-19T01:57:31.433Z,85.58
2023-05-19T01:58:02.365Z,85.31
2023-05-19T01:58:33.270Z,85.31
2023-05-19T01:59:04.183Z,85.62
2023-05-19T01:59:35.110Z,86.24
2023-05-19T02:00:06.027Z,85.93
2023-05-19T02:00:36.925Z,86.03
2023-05-19T02:01:07.881Z,86.13
2023-05-19T02:01:38.869Z,85.41
2023-05-19T02:02:09.304Z,85.62
2023-05-19T02:02:40.233Z,85.93
2023-05-19T02:03:11.159Z,86.13
2023-05-19T02:03:42.079Z,85.72
2023-05-19T02:04:13.061Z,85.72
2023-05-19T02:05:14.434Z,86.24
2023-05-19T02:05:45.358Z,86.44
2023-05-19T02:06:16.243Z,86.33
2023-05-19T02:06:47.171Z,86.54
2023-05-19T02:07:18.067Z,87.05
2023-05-19T02:07:48.993Z,86.54
2023-05-19T02:08:19.885Z,86.13
2023-05-19T02:08:50.838Z,86.13
2023-05-19T02:09:21.741Z,86.33
2023-05-19T02:09:52.663Z,86.13
2023-05-19T02:10:23.588Z,86.24
2023-05-19T02:10:54.514Z,86.54
2023-05-19T02:11:25.406Z,87.05
2023-05-19T02:11:56.349Z,87.46
2023-05-19T02:12:27.262Z,86.75
2023-05-19T02:12:58.199Z,86.44
2023-05-19T02:13:28.697Z,86.24
2023-05-19T02:13:59.616Z,86.54
2023-05-19T02:14:30.531Z,87.37
2023-05-19T02:15:01.443Z,86.75
2023-05-19T02:15:32.423Z,86.65
2023-05-19T02:16:03.381Z,86.54
2023-05-19T02:16:33.836Z,86.65
2023-05-19T02:17:04.788Z,86.75
2023-05-19T02:17:35.756Z,86.33
2023-05-19T02:18:06.730Z,86.85
2023-05-19T02:18:37.303Z,87.16
2023-05-19T02:19:07.827Z,86.65
2023-05-19T02:19:38.728Z,86.03
2023-05-19T02:20:09.649Z,85.93
2023-05-19T02:20:40.560Z,86.75
2023-05-19T02:21:11.492Z,87.26
2023-05-19T02:21:42.372Z,86.95
2023-05-19T02:22:13.269Z,86.54
2023-05-19T02:22:44.165Z,86.24
2023-05-19T02:23:15.072Z,86.24
2023-05-19T02:23:46.004Z,86.54
2023-05-19T02:24:16.929Z,86.44
2023-05-19T02:24:47.865Z,86.33
2023-05-19T02:25:18.789Z,85.93
2023-05-19T02:25:49.697Z,85.82
2023-05-19T02:26:20.606Z,85.72
2023-05-19T02:26:51.540Z,85.93
2023-05-19T02:27:22.472Z,85.93
2023-05-19T02:27:53.392Z,85.93
2023-05-19T02:28:24.309Z,85.72
2023-05-19T02:28:55.200Z,85.82
2023-05-19T02:29:26.150Z,86.03
2023-05-19T02:29:57.057Z,85.82
2023-05-19T02:30:28.012Z,86.13
2023-05-19T02:30:58.922Z,86.13
2023-05-19T02:31:29.912Z,86.03
2023-05-19T02:32:00.889Z,86.33
2023-05-19T02:32:31.349Z,86.75
2023-05-19T02:33:02.315Z,87.46
2023-05-19T02:33:33.249Z,87.67
2023-05-19T02:34:04.167Z,86.85
2023-05-19T02:34:35.101Z,87.16
2023-05-19T02:35:06.071Z,86.54
2023-05-19T02:35:36.984Z,86.54
2023-05-19T02:36:07.877Z,86.65
2023-05-19T02:36:38.925Z,87.16
2023-05-19T02:37:09.817Z,87.16
2023-05-19T02:37:40.775Z,86.75
2023-05-19T02:38:11.890Z,86.33
2023-05-19T02:38:42.321Z,86.03
2023-05-19T02:39:13.251Z,85.72
2023-05-19T02:40:15.092Z,85.62
2023-05-19T02:40:46.015Z,85.62
2023-05-19T02:41:16.956Z,85.93
2023-05-19T02:41:47.876Z,86.33
2023-05-19T02:42:18.838Z,86.33
2023-05-19T02:42:49.762Z,85.93
2023-05-19T02:43:20.682Z,85.82
2023-05-19T02:43:51.616Z,85.82
2023-05-19T02:44:22.545Z,85.82
2023-05-19T02:44:53.469Z,85.72
2023-05-19T02:45:24.451Z,86.03
2023-05-19T02:45:55.416Z,86.03
2023-05-19T02:46:26.331Z,86.03
2023-05-19T02:46:57.240Z,85.82
2023-05-19T02:47:28.265Z,86.03
2023-05-19T02:47:58.847Z,85.82
2023-05-19T02:48:29.274Z,85.62
2023-05-19T02:49:00.180Z,85.62
2023-05-19T02:49:31.085Z,85.62
2023-05-19T02:50:02.070Z,86.03
2023-05-19T02:50:33.145Z,86.03
2023-05-19T02:51:03.677Z,85.52
2023-05-19T02:51:34.606Z,85.72
2023-05-19T02:52:06.343Z,85.62
2023-05-19T02:52:36.278Z,85.62
2023-05-19T02:53:07.219Z,86.03
2023-05-19T02:53:38.143Z,86.54
2023-05-19T02:54:09.067Z,86.54
2023-05-19T02:54:39.962Z,86.13
2023-05-19T02:55:10.888Z,86.33
2023-05-19T02:55:41.851Z,86.13
2023-05-19T02:56:12.773Z,85.93
2023-05-19T02:56:43.698Z,85.72
2023-05-19T02:57:45.540Z,85.41
2023-05-19T02:58:16.469Z,85.41
2023-05-19T02:58:47.443Z,86.24
2023-05-19T02:59:18.348Z,86.33
2023-05-19T02:59:49.246Z,85.72
2023-05-19T03:00:20.188Z,86.24
2023-05-19T03:00:51.092Z,86.13
2023-05-19T03:01:22.066Z,85.52
2023-05-19T03:01:52.523Z,85.82
2023-05-19T03:02:23.416Z,85.52
2023-05-19T03:02:54.432Z,85.52
2023-05-19T03:03:24.937Z,85.82
2023-05-19T03:03:55.512Z,85.62
2023-05-19T03:04:25.991Z,85.52
2023-05-19T03:04:56.886Z,85.72
2023-05-19T03:05:27.822Z,86.13
2023-05-19T03:05:58.744Z,86.13
2023-05-19T03:06:29.682Z,86.13
2023-05-19T03:07:00.606Z,85.93
2023-05-19T03:07:31.561Z,85.72
2023-05-19T03:08:02.417Z,85.82
2023-05-19T03:08:33.282Z,85.93
2023-05-19T03:09:04.129Z,85.72
2023-05-19T03:09:34.973Z,85.62
2023-05-19T03:10:05.859Z,85.72
2023-05-19T03:10:36.805Z,85.62
2023-05-19T03:11:07.776Z,86.13
2023-05-19T03:11:38.672Z,85.82
2023-05-19T03:12:09.570Z,85.93
2023-05-19T03:12:40.463Z,86.33
2023-05-19T03:13:11.357Z,86.44
2023-05-19T03:13:42.217Z,85.72
2023-05-19T03:14:13.076Z,85.31
2023-05-19T03:14:43.948Z,85.41
2023-05-19T03:15:14.809Z,85.52
2023-05-19T03:15:45.711Z,85.21
2023-05-19T03:16:16.657Z,85.00
2023-05-19T03:16:47.588Z,85.11
2023-05-19T03:17:18.101Z,85.31
2023-05-19T03:17:49.043Z,85.41
2023-05-19T03:18:19.513Z,85.52
2023-05-19T03:18:50.413Z,85.11
2023-05-19T03:19:21.487Z,85.62
2023-05-19T03:19:52.005Z,86.24
2023-05-19T03:20:22.867Z,86.13
2023-05-19T03:20:53.803Z,85.72
2023-05-19T03:21:24.654Z,85.62
2023-05-19T03:21:55.534Z,85.82
2023-05-19T03:22:26.415Z,85.72
2023-05-19T03:23:28.129Z,86.24
2023-05-19T03:23:59.003Z,86.65
2023-05-19T03:24:29.866Z,86.54
2023-05-19T03:25:00.729Z,86.13
2023-05-19T03:25:31.628Z,86.03
2023-05-19T03:26:02.490Z,85.82
2023-05-19T03:26:33.344Z,85.62
2023-05-19T03:27:04.235Z,85.82
2023-05-19T03:27:35.093Z,85.52
2023-05-19T03:28:05.934Z,85.62
2023-05-19T03:28:36.787Z,85.72
2023-05-19T03:29:07.691Z,85.62
2023-05-19T03:29:38.583Z,85.41
2023-05-19T03:30:09.438Z,85.31
2023-05-19T03:30:40.297Z,85.00
2023-05-19T03:31:11.158Z,85.82
2023-05-19T03:31:42.035Z,85.93
2023-05-19T03:32:12.959Z,86.44
2023-05-19T03:32:43.950Z,85.82
2023-05-19T03:33:14.700Z,85.52
2023-05-19T03:33:45.186Z,85.41
2023-05-19T03:34:16.048Z,85.82
2023-05-19T03:34:46.901Z,85.93
2023-05-19T03:35:17.772Z,85.52
2023-05-19T03:35:48.643Z,85.11
2023-05-19T03:36:19.538Z,84.96
2023-05-19T03:36:50.404Z,85.17
2023-05-19T03:37:21.255Z,85.27
2023-05-19T03:37:52.169Z,85.47
2023-05-19T03:38:23.035Z,85.06
2023-05-19T03:38:53.884Z,84.76
2023-05-19T03:39:24.764Z,84.45
2023-05-19T03:39:55.625Z,84.45
2023-05-19T03:40:57.387Z,85.47
2023-05-19T03:41:28.276Z,84.76
2023-05-19T03:41:59.144Z,84.66
2023-05-19T03:42:30.014Z,85.17
2023-05-19T03:43:00.891Z,85.89
2023-05-19T03:43:31.778Z,86.09
2023-05-19T03:44:02.674Z,85.06
2023-05-19T03:44:33.583Z,85.58
2023-05-19T03:45:04.460Z,84.76
2023-05-19T03:45:35.356Z,84.25
2023-05-19T03:46:06.281Z,84.66
2023-05-19T03:46:37.141Z,85.06
2023-05-19T03:47:08.030Z,85.06
2023-05-19T03:47:38.974Z,84.96
2023-05-19T03:48:09.437Z,84.76
2023-05-19T03:48:40.316Z,84.45
2023-05-19T03:49:11.217Z,84.55
2023-05-19T03:49:42.093Z,84.55
2023-05-19T03:50:12.976Z,85.06
2023-05-19T03:50:43.869Z,84.76
2023-05-19T03:51:14.748Z,84.86
2023-05-19T03:51:45.621Z,85.17
2023-05-19T03:52:16.495Z,85.06
2023-05-19T03:52:47.370Z,84.66
2023-05-19T03:53:18.249Z,85.27
2023-05-19T03:53:49.134Z,86.19
2023-05-19T03:54:20.028Z,85.89
2023-05-19T03:54:50.905Z,85.27
2023-05-19T03:55:21.805Z,84.55
2023-05-19T03:55:52.666Z,84.66
2023-05-19T03:56:23.511Z,85.06
2023-05-19T03:56:54.376Z,85.06
2023-05-19T03:57:25.248Z,84.76
2023-05-19T03:58:27.010Z,84.96
2023-05-19T03:58:57.853Z,84.96
2023-05-19T03:59:28.709Z,85.89
2023-05-19T03:59:59.601Z,85.06
2023-05-19T04:00:30.801Z,85.17
2023-05-19T04:01:00.972Z,84.66
2023-05-19T04:01:31.861Z,84.96
2023-05-19T04:02:02.746Z,84.55
2023-05-19T04:02:33.635Z,84.55
2023-05-19T04:03:04.726Z,84.55
2023-05-19T04:03:35.223Z,84.69
2023-05-19T04:04:06.096Z,85.27
2023-05-19T04:04:37.080Z,85.31
2023-05-19T04:05:07.974Z,84.90
2023-05-19T04:05:38.865Z,85.00
2023-05-19T04:06:09.730Z,84.69
2023-05-19T04:06:40.601Z,85.21
2023-05-19T04:07:11.467Z,85.62
2023-05-19T04:07:42.348Z,86.03
2023-05-19T04:08:13.236Z,85.62
2023-05-19T04:08:44.095Z,85.62
2023-05-19T04:09:14.984Z,85.47
2023-05-19T04:09:45.895Z,85.38
2023-05-19T04:10:16.754Z,85.27
2023-05-19T04:10:47.628Z,85.21
2023-05-19T04:11:18.506Z,85.17
2023-05-19T04:11:49.396Z,85.06
2023-05-19T04:12:20.250Z,85.06
2023-05-19T04:12:51.121Z,85.27
2023-05-19T04:13:21.985Z,85.38
2023-05-19T04:13:52.843Z,85.27
2023-05-19T04:14:23.722Z,84.86
2023-05-19T04:14:54.590Z,84.96
2023-05-19T04:15:25.475Z,84.66
2023-05-19T04:15:56.458Z,84.86
2023-05-19T04:16:26.853Z,84.96
2023-05-19T04:16:57.730Z,85.06
2023-05-19T04:17:28.652Z,85.06
2023-05-19T04:17:59.563Z,85.58
2023-05-19T04:18:30.423Z,85.27
2023-05-19T04:19:01.320Z,85.06
2023-05-19T04:19:32.233Z,84.76
2023-05-19T04:20:03.134Z,85.27
2023-05-19T04:20:34.155Z,84.86
2023-05-19T04:21:04.728Z,85.17
2023-05-19T04:21:35.605Z,86.50
2023-05-19T04:22:06.500Z,86.50
2023-05-19T04:22:37.360Z,85.68
2023-05-19T04:23:08.254Z,85.47
2023-05-19T04:24:10.003Z,84.45
2023-05-19T04:24:40.893Z,84.55
2023-05-19T04:25:11.752Z,84.66
2023-05-19T04:25:42.616Z,85.17
2023-05-19T04:26:13.499Z,85.17
2023-05-19T04:26:44.377Z,85.17
2023-05-19T04:27:15.260Z,84.76
2023-05-19T04:27:46.137Z,84.76
2023-05-19T04:28:17.012Z,84.86
2023-05-19T04:28:47.908Z,84.86
2023-05-19T04:29:18.823Z,85.06
2023-05-19T04:29:49.666Z,85.06
2023-05-19T04:30:20.552Z,85.17
2023-05-19T04:30:51.462Z,86.30
2023-05-19T04:31:22.398Z,86.30
2023-05-19T04:31:53.280Z,86.40
2023-05-19T04:32:24.230Z,85.58
2023-05-19T04:32:55.198Z,84.96
2023-05-19T04:33:26.076Z,84.72
2023-05-19T04:33:56.940Z,85.27
2023-05-19T04:34:27.815Z,85.58
2023-05-19T04:34:58.716Z,85.68
2023-05-19T04:35:29.616Z,85.47
2023-05-19T04:36:00.475Z,85.47
2023-05-19T04:36:31.369Z,85.89
2023-05-19T04:37:02.217Z,86.46
2023-05-19T04:37:33.083Z,85.85
2023-05-19T04:38:03.956Z,85.54
2023-05-19T04:38:34.840Z,84.92
2023-05-19T04:39:05.772Z,84.72
2023-05-19T04:39:36.199Z,84.72
2023-05-19T04:40:07.420Z,84.92
2023-05-19T04:40:38.083Z,85.74
2023-05-19T04:41:09.942Z,85.85
2023-05-19T04:41:39.967Z,85.85
2023-05-19T04:42:10.585Z,85.23
2023-05-19T04:42:41.071Z,85.54
2023-05-19T04:43:11.937Z,85.85
2023-05-19T04:43:42.790Z,85.33
2023-05-19T04:44:13.686Z,85.03
2023-05-19T04:44:44.564Z,85.13
2023-05-19T04:45:15.403Z,85.44
2023-05-19T04:45:46.297Z,85.33
2023-05-19T04:46:17.197Z,85.44
2023-05-19T04:46:48.115Z,85.85
2023-05-19T04:47:18.991Z,85.33
2023-05-19T04:47:49.886Z,85.33
2023-05-19T04:48:20.769Z,85.03
2023-05-19T04:48:51.631Z,84.92
2023-05-19T04:49:22.502Z,85.03
2023-05-19T04:49:53.398Z,84.41
2023-05-19T04:50:24.264Z,84.82
2023-05-19T04:50:55.141Z,85.03
2023-05-19T04:51:26.000Z,84.92
2023-05-19T04:51:56.886Z,85.13
2023-05-19T04:52:27.757Z,85.23
2023-05-19T04:52:58.665Z,85.33
2023-05-19T04:53:29.540Z,85.44
2023-05-19T04:54:00.368Z,85.13
2023-05-19T04:54:31.247Z,85.95
2023-05-19T04:55:02.120Z,86.25
2023-05-19T04:55:33.080Z,86.25
2023-05-19T04:56:03.920Z,86.25
2023-05-19T04:56:34.772Z,86.46
2023-05-19T04:57:05.617Z,86.57
2023-05-19T04:57:36.486Z,85.44
2023-05-19T04:58:07.366Z,85.74
2023-05-19T04:58:39.591Z,85.54
2023-05-19T04:59:08.975Z,85.54
2023-05-19T04:59:39.828Z,85.64
2023-05-19T05:00:10.683Z,85.54
2023-05-19T05:00:41.583Z,85.74
2023-05-19T05:01:12.458Z,86.15
2023-05-19T05:01:43.485Z,86.15
2023-05-19T05:02:44.904Z,85.23
2023-05-19T05:03:15.857Z,85.54
2023-05-19T05:03:46.794Z,85.74
2023-05-19T05:04:17.651Z,86.57
2023-05-19T05:04:48.536Z,85.95
2023-05-19T05:05:19.441Z,85.74
2023-05-19T05:05:50.317Z,85.54
2023-05-19T05:06:21.174Z,85.64
2023-05-19T05:06:52.054Z,85.13
2023-05-19T05:07:22.944Z,85.23
2023-05-19T05:07:53.806Z,85.44
2023-05-19T05:08:24.655Z,85.85
2023-05-19T05:08:55.536Z,85.91
2023-05-19T05:09:26.421Z,86.25
2023-05-19T05:09:57.337Z,86.22
2023-05-19T05:10:28.208Z,85.80
2023-05-19T05:10:59.092Z,86.11
2023-05-19T05:11:29.972Z,85.80
2023-05-19T05:12:00.832Z,85.19
2023-05-19T05:12:31.700Z,85.50
2023-05-19T05:13:02.589Z,85.39
2023-05-19T05:13:33.468Z,84.99
2023-05-19T05:14:04.365Z,85.71
2023-05-19T05:14:35.234Z,86.11
2023-05-19T05:15:06.136Z,86.22
2023-05-19T05:15:36.987Z,85.80
2023-05-19T05:16:07.927Z,86.22
2023-05-19T05:16:38.873Z,85.80
2023-05-19T05:17:09.736Z,86.01
2023-05-19T05:17:40.648Z,86.22
2023-05-19T05:18:11.552Z,85.50
2023-05-19T05:18:44.669Z,85.50
2023-05-19T05:19:13.478Z,85.60
2023-05-19T05:19:44.370Z,85.09
2023-05-19T05:20:15.245Z,84.99
2023-05-19T05:20:46.099Z,85.91
2023-05-19T05:21:16.973Z,86.01
2023-05-19T05:21:47.860Z,86.01
2023-05-19T05:22:18.732Z,86.22
2023-05-19T05:22:49.259Z,86.42
2023-05-19T05:23:20.137Z,86.42
2023-05-19T05:23:50.980Z,86.52
2023-05-19T05:24:21.875Z,86.52
2023-05-19T05:24:52.760Z,86.42
2023-05-19T05:25:23.645Z,85.71
2023-05-19T05:25:54.495Z,85.19
2023-05-19T05:26:25.406Z,85.30
2023-05-19T05:26:56.274Z,85.71
2023-05-19T05:27:27.137Z,85.39
2023-05-19T05:27:58.009Z,85.30
2023-05-19T05:28:28.870Z,85.30
2023-05-19T05:28:59.706Z,85.39
2023-05-19T05:29:30.577Z,85.60
2023-05-19T05:30:01.428Z,86.22
2023-05-19T05:30:32.314Z,85.91
2023-05-19T05:31:03.187Z,85.91
2023-05-19T05:31:34.048Z,85.97
2023-05-19T05:32:04.931Z,85.66
2023-05-19T05:32:35.943Z,86.18
2023-05-19T05:33:06.588Z,85.87
2023-05-19T05:33:37.090Z,85.46
2023-05-19T05:34:07.962Z,85.36
2023-05-19T05:34:38.844Z,85.87
2023-05-19T05:35:09.723Z,85.97
2023-05-19T05:35:40.608Z,86.38
2023-05-19T05:36:11.481Z,86.58
2023-05-19T05:36:42.355Z,86.07
2023-05-19T05:37:15.225Z,85.66
2023-05-19T05:37:44.234Z,85.46
2023-05-19T05:38:15.124Z,85.15
2023-05-19T05:38:45.971Z,85.15
2023-05-19T05:39:16.851Z,85.15
2023-05-19T05:39:47.755Z,85.46
2023-05-19T05:40:18.618Z,85.56
2023-05-19T05:40:49.493Z,86.90
2023-05-19T05:41:20.361Z,86.58
2023-05-19T05:41:51.303Z,86.18
2023-05-19T05:42:22.169Z,85.87
2023-05-19T05:42:53.044Z,86.07
2023-05-19T05:43:23.918Z,85.77
2023-05-19T05:43:54.829Z,86.58
2023-05-19T05:44:25.741Z,85.46
2023-05-19T05:44:56.609Z,85.25
2023-05-19T05:45:27.500Z,85.77
2023-05-19T05:45:58.448Z,86.07
2023-05-19T05:46:29.339Z,85.56
2023-05-19T05:47:00.221Z,85.25
2023-05-19T05:47:31.120Z,85.66
2023-05-19T05:48:02.147Z,85.87
2023-05-19T05:48:32.567Z,85.87
2023-05-19T05:49:03.477Z,85.46
2023-05-19T05:49:34.349Z,85.15
2023-05-19T05:50:36.129Z,85.97
2023-05-19T05:51:06.976Z,85.87
2023-05-19T05:51:37.847Z,86.07
2023-05-19T05:52:08.729Z,86.48
2023-05-19T05:52:39.589Z,86.90
2023-05-19T05:53:10.456Z,85.77
2023-05-19T05:53:41.325Z,86.18
2023-05-19T05:54:12.196Z,85.77
2023-05-19T05:54:43.083Z,85.77
2023-05-19T05:55:13.939Z,85.46
2023-05-19T05:55:44.813Z,85.87
2023-05-19T05:56:15.701Z,86.38
2023-05-19T05:56:46.554Z,86.04
2023-05-19T05:57:17.518Z,86.18
2023-05-19T05:57:48.358Z,85.22
2023-05-19T05:58:19.222Z,85.11
2023-05-19T05:58:50.095Z,85.63
2023-05-19T05:59:20.968Z,86.04
2023-05-19T05:59:51.874Z,85.72
2023-05-19T06:00:22.797Z,85.72
2023-05-19T06:00:53.665Z,85.01
2023-05-19T06:01:24.542Z,85.31
2023-05-19T06:01:55.451Z,85.72
2023-05-19T06:02:26.364Z,86.55
2023-05-19T06:03:28.249Z,88.39
2023-05-19T06:03:59.148Z,86.55
2023-05-19T06:04:30.058Z,86.24
2023-05-19T06:05:00.999Z,86.14
2023-05-19T06:05:31.902Z,86.04
2023-05-19T06:06:02.797Z,85.83
2023-05-19T06:06:33.802Z,85.58
2023-05-19T06:07:04.675Z,85.38
2023-05-19T06:07:35.550Z,86.20
2023-05-19T06:08:06.435Z,85.79
2023-05-19T06:08:37.288Z,85.07
2023-05-19T06:09:08.168Z,85.58
2023-05-19T06:09:39.038Z,84.97
2023-05-19T06:10:09.928Z,85.07
2023-05-19T06:10:40.793Z,85.28
2023-05-19T06:11:11.654Z,86.10
2023-05-19T06:11:42.529Z,86.51
2023-05-19T06:12:13.394Z,86.20
2023-05-19T06:12:44.355Z,85.99
2023-05-19T06:13:15.235Z,85.48
2023-05-19T06:13:46.110Z,84.77
2023-05-19T06:14:16.993Z,85.17
2023-05-19T06:14:47.940Z,85.28
2023-05-19T06:15:18.805Z,85.07
2023-05-19T06:15:49.733Z,85.69
2023-05-19T06:16:20.647Z,85.28
2023-05-19T06:16:51.528Z,84.97
2023-05-19T06:17:22.413Z,85.69
2023-05-19T06:17:53.357Z,85.99
2023-05-19T06:18:24.245Z,84.97
2023-05-19T06:18:55.142Z,84.46
2023-05-19T06:19:26.039Z,84.36
2023-05-19T06:19:56.912Z,85.28
2023-05-19T06:20:27.797Z,84.77
2023-05-19T06:20:58.682Z,84.36
2023-05-19T06:21:29.566Z,85.34
2023-05-19T06:22:00.458Z,85.24
2023-05-19T06:22:31.356Z,84.52
2023-05-19T06:23:02.186Z,85.34
2023-05-19T06:23:33.048Z,84.52
2023-05-19T06:24:03.957Z,84.83
2023-05-19T06:24:35.203Z,85.14
2023-05-19T06:25:05.773Z,84.72
2023-05-19T06:25:36.644Z,84.72
2023-05-19T06:26:07.505Z,84.63
2023-05-19T06:26:38.390Z,85.14
2023-05-19T06:27:09.282Z,86.16
2023-05-19T06:27:40.140Z,86.53
2023-05-19T06:28:11.076Z,86.22
2023-05-19T06:28:41.921Z,83.97
2023-05-19T06:29:12.810Z,84.07
2023-05-19T06:29:43.666Z,83.46
2023-05-19T06:30:14.524Z,84.28
2023-05-19T06:30:45.487Z,83.97
2023-05-19T06:31:16.416Z,84.34
2023-05-19T06:31:47.368Z,83.11
2023-05-19T06:32:18.257Z,83.93
2023-05-19T06:32:49.229Z,82.50
2023-05-19T06:33:19.637Z,83.11
2023-05-19T06:33:50.504Z,84.20
2023-05-19T06:34:21.380Z,82.67
2023-05-19T06:34:52.309Z,82.05
2023-05-19T06:35:23.546Z,82.46
2023-05-19T06:35:53.888Z,82.56
2023-05-19T06:36:24.753Z,82.05
2023-05-19T06:36:55.691Z,82.15
2023-05-19T06:37:26.566Z,81.40
2023-05-19T06:37:57.438Z,80.79
2023-05-19T06:38:28.310Z,80.18
2023-05-19T06:39:01.255Z,80.79
2023-05-19T06:39:29.800Z,80.58
2023-05-19T06:40:00.695Z,80.79
2023-05-19T06:40:31.753Z,81.60
2023-05-19T06:41:02.277Z,81.51
2023-05-19T06:41:33.145Z,81.30
2023-05-19T06:42:04.014Z,80.28
2023-05-19T06:42:34.885Z,80.75
2023-05-19T06:43:05.772Z,82.79
2023-05-19T06:43:36.697Z,80.44
2023-05-19T06:44:07.554Z,79.93
2023-05-19T06:44:38.433Z,80.55
2023-05-19T06:45:09.294Z,80.34